Time;durP1;ratioP1;P1;durP2;ratioP2;P2;SDS_P1;SDS_P2;PMS_P1;PMS_P2;Temp;Humidity;BMP_temperature;BMP_pressure;BME280_temperature;BME280_humidity;BME280_pressure;Samples;Min_cycle;Max_cycle;Signal;HPM_P1;HPM_P2
2021/04/05 00:01:04;;;;;;;16.17;11.23;;;;;;;3.28;73.31;94477.31;2984604;40;20056;-85
2021/04/05 00:03:05;;;;;;;13.52;11.55;;;;;;;3.30;73.56;94476.41;2988999;39;20060;-86
2021/04/05 00:05:09;;;;;;;15.02;11.35;;;;;;;3.42;73.59;94470.22;2986796;39;20137;-87
2021/04/05 00:07:10;;;;;;;;;;;;;;;3.40;73.44;94477.28;2987242;39;20080;-84
2021/04/05 00:09:13;;;;;;;13.23;11.25;;;;;;;3.42;73.75;94480.59;2979465;40;20324;-85
2021/04/05 00:11:16;;;;;;;14.23;10.88;;;;;;;3.38;73.68;94485.22;2989264;39;20028;-85
2021/04/05 00:13:29;;;;;;;14.10;11.83;;;;;;;3.43;72.91;94483.06;2987810;39;20456;-87
2021/04/05 00:15:30;;;;;;;15.00;11.15;;;;;;;3.36;72.76;94481.09;2983048;39;20084;-87
2021/04/05 00:17:32;;;;;;;15.68;11.90;;;;;;;3.28;72.86;94479.91;2996389;39;20115;-85
2021/04/05 00:19:33;;;;;;;14.10;11.75;;;;;;;3.35;73.61;94479.44;2979193;40;20313;-84
2021/04/05 00:21:35;;;;;;;15.13;12.23;;;;;;;3.35;73.18;94477.66;2988792;39;20065;-85
2021/04/05 00:23:36;;;;;;;15.77;11.23;;;;;;;3.28;73.16;94477.31;2989915;39;20068;-86
2021/04/05 00:25:37;;;;;;;14.40;11.68;;;;;;;3.25;72.80;94481.94;2989248;39;20050;-84
2021/04/05 00:27:41;;;;;;;13.75;11.18;;;;;;;3.20;72.40;94482.28;2981684;39;20036;-85
2021/04/05 00:29:42;;;;;;;14.30;11.43;;;;;;;3.16;72.71;94478.31;2981025;39;20348;-85
2021/04/05 00:31:44;;;;;;;14.35;11.57;;;;;;;3.18;72.49;94481.56;2989017;39;20054;-85
2021/04/05 00:33:46;;;;;;;13.90;10.98;;;;;;;3.22;72.11;94480.38;2988007;39;20083;-88
2021/04/05 00:35:47;;;;;;;13.45;11.75;;;;;;;3.26;72.31;94476.63;2988360;39;20401;-88
2021/04/05 00:37:50;;;;;;;13.75;11.93;;;;;;;3.20;72.53;94484.03;2988763;39;20043;-86
2021/04/05 00:39:51;;;;;;;14.05;11.07;;;;;;;3.20;72.45;94482.28;2979686;39;20048;-83
2021/04/05 00:41:52;;;;;;;15.02;12.02;;;;;;;3.22;72.68;94482.16;2988185;39;20317;-84
2021/04/05 00:43:53;;;;;;;12.88;10.80;;;;;;;3.25;71.92;94477.56;2980197;40;20409;-86
2021/04/05 00:45:55;;;;;;;13.40;11.20;;;;;;;3.15;72.47;94481.81;2986275;40;20037;-85
2021/04/05 00:47:56;;;;;;;13.10;10.68;;;;;;;3.16;72.47;94475.72;2997277;39;20048;-86
2021/04/05 00:49:57;;;;;;;14.18;10.63;;;;;;;3.26;72.56;94476.63;2989888;39;20044;-84
2021/04/05 00:51:58;;;;;;;13.68;11.48;;;;;;;3.16;72.02;94485.22;2979764;39;20059;-84
2021/04/05 00:54:00;;;;;;;13.10;10.73;;;;;;;3.20;72.67;94479.69;2982010;40;20051;-84
2021/04/05 00:56:02;;;;;;;13.38;11.77;;;;;;;3.24;72.51;94473.31;2981867;40;20327;-84
2021/04/05 00:58:04;;;;;;;15.68;11.63;;;;;;;3.28;72.67;94464.38;2970464;40;20076;-84
2021/04/05 01:00:13;;;;;;;15.35;11.38;;;;;;;3.34;72.74;94477.81;2982405;39;20031;-82
2021/04/05 01:02:14;;;;;;;16.40;11.38;;;;;;;3.40;72.32;94485.06;2978810;39;20303;-83
2021/04/05 01:04:16;;;;;;;14.85;11.52;;;;;;;3.45;72.26;94475.19;2987641;39;20086;-85
2021/04/05 01:06:24;;;;;;;14.38;11.55;;;;;;;3.42;71.74;94480.59;2989048;39;20035;-85
2021/04/05 01:08:26;;;;;;;13.65;11.50;;;;;;;3.45;71.70;94485.53;2970472;40;20271;-85
2021/04/05 01:10:27;;;;;;;12.98;10.98;;;;;;;3.41;71.99;94486.72;2979166;40;20125;-85
2021/04/05 01:12:28;;;;;;;14.50;11.45;;;;;;;3.42;72.21;94480.59;2979839;40;20093;-84
2021/04/05 01:14:30;;;;;;;13.55;10.63;;;;;;;3.50;71.05;94473.03;2986394;39;20059;-85
2021/04/05 01:16:31;;;;;;;14.13;11.18;;;;;;;3.48;71.25;94480.09;2978611;39;20052;-84
2021/04/05 01:18:33;;;;;;;12.98;11.23;;;;;;;3.49;71.40;94480.00;2979476;39;20068;-85
2021/04/05 01:20:36;;;;;;;13.90;11.35;;;;;;;3.51;71.70;94474.69;2979565;39;20085;-86
2021/04/05 01:22:38;;;;;;;13.70;11.27;;;;;;;3.40;71.55;94485.91;2987368;39;20043;-83
2021/04/05 01:24:40;;;;;;;14.27;10.75;;;;;;;3.43;71.61;94483.06;2988052;39;20055;-84
2021/04/05 01:26:41;;;;;;;12.30;10.65;;;;;;;3.45;71.59;94482.94;2987926;39;20087;-84
2021/04/05 01:28:42;;;;;;;13.10;10.90;;;;;;;3.44;71.05;94483.88;2988365;39;20036;-84
2021/04/05 01:30:54;;;;;;;13.50;10.55;;;;;;;3.39;71.02;94491.19;2984788;39;20056;-84
2021/04/05 01:33:11;;;;;;;12.45;10.48;;;;;;;3.35;71.42;94489.78;2986679;39;20100;-84
2021/04/05 01:35:13;;;;;;;11.00;9.43;;;;;;;3.35;71.69;94493.19;2979006;39;20042;-85
2021/04/05 01:37:14;;;;;;;13.50;10.88;;;;;;;3.35;71.31;94494.97;2988088;39;20408;-83
2021/04/05 01:39:15;;;;;;;12.40;10.80;;;;;;;3.37;71.04;94498.25;2991591;39;20052;-86
2021/04/05 01:41:23;;;;;;;13.43;10.80;;;;;;;3.40;70.95;94487.66;2981809;39;20055;-84
2021/04/05 01:43:24;;;;;;;11.48;9.27;;;;;;;3.39;70.91;94492.00;2969567;40;20057;-84
2021/04/05 01:45:25;;;;;;;13.45;11.05;;;;;;;3.31;71.30;94490.97;2978031;39;20042;-84
2021/04/05 01:47:26;;;;;;;11.23;9.63;;;;;;;3.34;71.03;94488.16;2978240;40;20060;-72
2021/04/05 01:49:28;;;;;;;12.02;10.50;;;;;;;3.31;70.55;94485.78;2974351;39;20329;-72
2021/04/05 01:51:29;;;;;;;11.80;10.07;;;;;;;3.28;70.86;94492.03;2977487;39;20275;-70
2021/04/05 01:53:31;;;;;;;13.13;10.52;;;;;;;3.24;70.64;94491.44;2988033;39;20054;-72
2021/04/05 01:55:33;;;;;;;14.05;11.00;;;;;;;3.32;70.64;94480.50;2979485;39;20055;-73
2021/04/05 01:57:35;;;;;;;13.00;10.32;;;;;;;3.30;70.51;94487.56;2985690;39;20051;-71
2021/04/05 01:59:37;;;;;;;12.95;10.50;;;;;;;3.37;70.37;94483.53;2976307;39;20387;-71
2021/04/05 02:01:39;;;;;;;13.80;11.20;;;;;;;3.46;70.50;94494.94;2974031;39;20043;-72
2021/04/05 02:03:41;;;;;;;12.55;10.88;;;;;;;3.37;70.48;94487.91;2974881;40;20478;-71
2021/04/05 02:05:51;;;;;;;11.75;9.98;;;;;;;3.39;69.80;94488.59;2983490;39;20076;-71
2021/04/05 02:07:52;;;;;;;12.57;10.48;;;;;;;3.40;70.06;94488.50;2975055;40;20054;-72
2021/04/05 02:09:53;;;;;;;13.60;11.27;;;;;;;3.30;69.86;94484.16;2973367;39;20067;-71
2021/04/05 02:11:55;;;;;;;14.35;11.23;;;;;;;3.37;70.44;94485.31;2973932;39;20419;-71
2021/04/05 02:13:57;;;;;;;13.82;10.60;;;;;;;3.39;69.95;94486.03;2983116;39;20532;-70
2021/04/05 02:15:58;;;;;;;15.38;11.60;;;;;;;3.35;69.99;94480.25;2978552;39;20063;-74
2021/04/05 02:18:00;;;;;;;13.82;11.25;;;;;;;3.33;69.62;94481.31;2973550;39;20482;-72
2021/04/05 02:20:04;;;;;;;14.13;11.65;;;;;;;3.28;69.52;94479.09;2973962;39;20315;-70
2021/04/05 02:22:06;;;;;;;14.57;11.20;;;;;;;3.35;69.48;94476.84;2975466;39;20052;-71
2021/04/05 02:24:07;;;;;;;15.15;10.90;;;;;;;3.40;68.79;94477.28;2974339;39;20481;-72
2021/04/05 02:26:11;;;;;;;14.75;10.93;;;;;;;3.39;68.80;94484.25;2977437;39;20426;-71
2021/04/05 02:28:12;;;;;;;14.10;11.20;;;;;;;3.27;68.71;94483.47;2973579;40;20084;-71
2021/04/05 02:30:24;;;;;;;13.75;10.68;;;;;;;3.24;69.10;94478.50;2974456;39;20322;-71
2021/04/05 02:32:25;;;;;;;13.57;10.70;;;;;;;3.19;69.38;94480.63;2976316;39;20268;-70
2021/04/05 02:34:27;;;;;;;15.57;11.27;;;;;;;3.14;69.22;94481.94;2974494;39;20429;-70
2021/04/05 02:36:30;;;;;;;16.13;12.27;;;;;;;3.20;69.54;94489.22;2983005;39;20105;-72
2021/04/05 02:38:39;;;;;;;14.65;12.05;;;;;;;3.18;69.60;94488.50;2990186;39;20437;-71
2021/04/05 02:40:42;;;;;;;15.02;11.10;;;;;;;3.18;69.27;94491.91;2982924;39;20384;-71
2021/04/05 02:42:44;;;;;;;14.20;11.32;;;;;;;3.23;68.60;94495.00;2976022;39;20063;-72
2021/04/05 02:44:45;;;;;;;13.88;11.32;;;;;;;3.22;69.26;94501.09;2974472;39;20429;-72
2021/04/05 02:46:47;;;;;;;16.23;11.43;;;;;;;3.20;68.89;94492.63;2990461;39;20051;-86
2021/04/05 02:48:50;;;;;;;14.35;11.65;;;;;;;3.16;69.01;94496.41;2986349;40;20067;-85
2021/04/05 02:50:51;;;;;;;14.90;12.02;;;;;;;3.23;69.16;94502.75;2978443;40;20048;-84
2021/04/05 02:52:57;;;;;;;15.02;11.38;;;;;;;3.25;68.35;94506.06;2988376;39;20083;-85
2021/04/05 02:54:58;;;;;;;13.70;11.25;;;;;;;3.30;69.19;94505.69;2986324;39;20050;-86
2021/04/05 02:57:00;;;;;;;14.65;12.13;;;;;;;3.35;69.25;94497.56;2981713;39;20405;-86
2021/04/05 02:59:01;;;;;;;15.43;12.43;;;;;;;3.43;68.62;94498.59;2977726;40;20140;-86
2021/04/05 03:01:02;;;;;;;14.30;11.75;;;;;;;3.39;68.48;94502.38;2985645;39;20404;-86
2021/04/05 03:03:04;;;;;;;13.80;11.27;;;;;;;3.42;68.58;94501.31;2984276;39;20060;-83
2021/04/05 03:05:06;;;;;;;16.40;12.32;;;;;;;3.37;68.76;94506.03;2986424;39;21956;-86
2021/04/05 03:07:08;;;;;;;15.38;12.20;;;;;;;3.37;68.34;94508.63;2973862;39;20349;-84
2021/04/05 03:09:09;;;;;;;14.40;12.18;;;;;;;3.25;68.35;94513.81;2995103;39;20038;-86
2021/04/05 03:11:20;;;;;;;15.35;12.65;;;;;;;3.25;68.93;94515.59;2994884;39;20388;-86
2021/04/05 03:13:21;;;;;;;13.25;10.95;;;;;;;3.22;68.85;94508.03;2986225;39;20341;-85
2021/04/05 03:15:23;;;;;;;16.60;12.70;;;;;;;3.19;69.27;94510.88;2986741;39;20062;-85
2021/04/05 03:17:25;;;;;;;15.98;13.48;;;;;;;3.12;68.92;94510.53;2991596;39;20059;-84
2021/04/05 03:19:27;;;;;;;16.23;12.88;;;;;;;3.09;69.06;94508.16;2988919;39;20047;-87
2021/04/05 03:21:30;;;;;;;16.33;12.98;;;;;;;3.09;69.34;94513.34;2987576;39;20505;-85
2021/04/05 03:23:32;;;;;;;15.13;11.88;;;;;;;3.10;69.65;94512.41;2980226;39;20040;-84
2021/04/05 03:25:33;;;;;;;15.07;12.48;;;;;;;3.06;69.28;94508.41;2992084;39;20053;-85
2021/04/05 03:27:34;;;;;;;14.70;12.48;;;;;;;3.07;69.40;94510.88;2980333;39;20020;-86
2021/04/05 03:29:36;;;;;;;16.75;12.52;;;;;;;3.14;69.28;94507.81;2987169;39;20075;-85
2021/04/05 03:31:39;;;;;;;14.52;12.68;;;;;;;3.13;69.20;94511.34;2987276;39;20070;-85
2021/04/05 03:33:45;;;;;;;16.65;12.73;;;;;;;3.10;69.30;94515.00;2985389;39;20032;-86
2021/04/05 03:35:52;;;;;;;18.05;12.50;;;;;;;3.00;69.61;94507.13;2986094;39;20421;-85
2021/04/05 03:37:54;;;;;;;15.88;12.98;;;;;;;2.92;69.93;94509.47;2977670;40;20096;-87
2021/04/05 03:39:55;;;;;;;15.70;12.30;;;;;;;2.94;69.32;94507.59;2976505;39;20048;-72
2021/04/05 03:42:31;;;;;;;14.23;12.00;;;;;;;3.05;68.91;94509.34;2984639;39;20091;-73
2021/04/05 03:44:54;;;;;;;15.15;12.07;;;;;;;2.89;68.94;94511.47;2961204;39;20322;-72
2021/04/05 03:46:59;;;;;;;15.85;12.48;;;;;;;2.93;68.87;94512.91;2975525;39;20326;-71
2021/04/05 03:49:26;;;;;;;13.98;11.70;;;;;;;2.94;68.70;94506.75;2975325;39;20309;-72
2021/04/05 03:51:37;;;;;;;16.25;12.15;;;;;;;2.85;68.49;94513.47;2967413;40;20074;-72
2021/04/05 03:53:42;;;;;;;16.85;13.05;;;;;;;2.88;68.76;94520.97;2979864;39;20323;-70
2021/04/05 03:55:46;;;;;;;15.82;12.57;;;;;;;2.93;68.22;94515.47;2975128;39;20474;-72
2021/04/05 03:57:49;;;;;;;17.27;12.32;;;;;;;2.92;68.22;94512.06;2977007;39;20175;-72
2021/04/05 03:59:53;;;;;;;14.57;12.38;;;;;;;2.90;68.10;94507.94;2975292;39;20108;-72
2021/04/05 04:02:05;;;;;;;13.98;11.85;;;;;;;2.84;67.96;94506.66;2974806;39;20060;-72
2021/04/05 04:04:17;;;;;;;15.43;12.20;;;;;;;2.80;67.79;94500.06;2984073;39;20087;-72
2021/04/05 04:06:23;;;;;;;16.95;13.05;;;;;;;2.81;67.65;94504.28;2977780;39;20290;-71
2021/04/05 04:08:39;;;;;;;14.35;12.27;;;;;;;2.90;68.11;94508.75;2983861;39;20088;-74
2021/04/05 04:10:45;;;;;;;17.52;13.40;;;;;;;2.88;67.54;94502.88;2992890;39;20492;-71
2021/04/05 04:12:48;;;;;;;16.83;13.60;;;;;;;2.93;67.75;94510.31;2975701;39;20063;-72
2021/04/05 04:14:50;;;;;;;18.35;14.60;;;;;;;2.86;67.32;94513.34;2974578;39;20055;-70
2021/04/05 04:16:51;;;;;;;17.63;13.38;;;;;;;2.89;66.90;94509.72;2984089;39;20052;-72
2021/04/05 04:18:55;;;;;;;18.70;13.73;;;;;;;2.89;67.14;94514.06;2970740;39;20056;-72
2021/04/05 04:20:57;;;;;;;;;;;;;;;2.92;66.95;94516.41;2981528;39;20316;-72
2021/04/05 04:22:59;;;;;;;18.27;13.82;;;;;;;2.86;66.48;94520.28;2976021;39;19962;-71
2021/04/05 04:25:00;;;;;;;19.20;14.38;;;;;;;2.84;66.55;94517.81;2975911;39;20144;-72
2021/04/05 04:27:03;;;;;;;17.58;13.50;;;;;;;2.77;66.23;94513.22;2967176;39;20051;-72
2021/04/05 04:29:05;;;;;;;16.43;13.33;;;;;;;2.75;66.02;94518.50;2980544;39;20092;-73
2021/04/05 04:31:06;;;;;;;19.45;14.60;;;;;;;2.79;65.99;94513.94;2975843;39;20063;-71
2021/04/05 04:33:11;;;;;;;18.67;13.57;;;;;;;2.84;66.04;94517.81;2984301;39;20052;-72
2021/04/05 04:35:13;;;;;;;19.55;14.38;;;;;;;2.83;65.73;94511.00;2969034;39;20444;-72
2021/04/05 04:37:15;;;;;;;18.77;14.45;;;;;;;2.91;66.07;94509.59;2983838;39;20408;-72
2021/04/05 04:39:17;;;;;;;20.23;15.13;;;;;;;2.85;66.02;94509.09;2974440;40;20567;-73
2021/04/05 04:41:23;;;;;;;19.10;13.88;;;;;;;2.90;65.62;94506.16;2986932;39;20057;-73
2021/04/05 04:43:24;;;;;;;18.90;14.93;;;;;;;2.84;66.06;94510.06;2984326;39;20054;-71
2021/04/05 04:45:30;;;;;;;19.95;15.25;;;;;;;2.88;65.65;94518.41;2975930;39;20096;-72
2021/04/05 04:47:32;;;;;;;19.83;15.77;;;;;;;2.82;66.19;94513.72;2983969;39;20060;-71
2021/04/05 04:49:33;;;;;;;22.00;15.10;;;;;;;2.83;66.27;94518.75;2980403;39;20091;-72
2021/04/05 04:51:35;;;;;;;20.10;15.43;;;;;;;2.80;66.12;94524.16;2975665;39;20084;-73
2021/04/05 04:53:36;;;;;;;19.80;15.57;;;;;;;2.74;66.65;94516.06;2983295;39;20091;-72
2021/04/05 04:55:38;;;;;;;21.55;15.55;;;;;;;2.74;66.21;94516.88;2983871;39;20151;-73
2021/04/05 04:57:43;;;;;;;19.65;14.70;;;;;;;2.81;66.55;94519.81;2984075;39;20562;-72
2021/04/05 04:59:44;;;;;;;19.20;15.00;;;;;;;2.76;65.89;94516.75;2982767;39;20463;-72
2021/04/05 05:01:46;;;;;;;18.48;14.55;;;;;;;2.82;65.62;94513.72;2975919;39;20052;-71
2021/04/05 05:03:58;;;;;;;19.48;15.38;;;;;;;2.90;65.58;94513.94;2980059;39;20059;-72
2021/04/05 05:06:00;;;;;;;20.50;15.75;;;;;;;2.86;65.80;94523.72;2982640;39;20055;-70
2021/04/05 05:08:02;;;;;;;19.90;15.60;;;;;;;2.86;65.84;94531.47;2975145;39;20052;-72
2021/04/05 05:10:08;;;;;;;21.40;15.75;;;;;;;2.90;65.86;94526.88;2982690;39;20051;-73
2021/04/05 05:12:10;;;;;;;18.52;14.07;;;;;;;2.93;65.51;94528.41;2974877;39;20067;-72
2021/04/05 05:14:13;;;;;;;18.85;14.85;;;;;;;2.98;65.48;94531.47;2990197;39;20039;-72
2021/04/05 05:16:14;;;;;;;19.45;15.38;;;;;;;3.02;65.21;94531.13;2991755;39;20046;-72
2021/04/05 05:18:16;;;;;;;20.83;15.80;;;;;;;3.03;65.48;94537.09;2973720;39;20629;-71
2021/04/05 05:20:18;;;;;;;20.55;15.55;;;;;;;3.13;65.05;94547.59;2981076;39;20058;-73
2021/04/05 05:22:21;;;;;;;19.88;15.32;;;;;;;3.18;64.84;94541.09;2991661;39;20046;-72
2021/04/05 05:24:25;;;;;;;19.83;15.18;;;;;;;3.30;64.73;94541.13;2976872;39;20324;-72
2021/04/05 05:26:26;;;;;;;19.17;15.25;;;;;;;3.33;64.42;94540.88;2965652;40;20387;-72
2021/04/05 05:28:28;;;;;;;19.65;15.20;;;;;;;3.27;64.07;94543.00;2989801;39;20055;-72
2021/04/05 05:30:29;;;;;;;19.42;15.80;;;;;;;3.46;64.41;94541.56;2977840;39;20153;-73
2021/04/05 05:32:31;;;;;;;18.60;15.10;;;;;;;3.51;64.28;94544.63;2978507;39;20109;-72
2021/04/05 05:34:32;;;;;;;17.08;13.23;;;;;;;3.47;63.47;94545.81;2990267;39;20058;-73
2021/04/05 05:36:36;;;;;;;19.83;14.50;;;;;;;3.56;63.07;94539.91;2975687;39;20113;-72
2021/04/05 05:38:37;;;;;;;18.85;14.70;;;;;;;3.76;63.49;94540.91;2976587;39;21277;-73
2021/04/05 05:40:39;;;;;;;19.00;14.50;;;;;;;3.80;62.77;94551.88;2983856;39;20079;-73
2021/04/05 05:42:43;;;;;;;19.52;14.60;;;;;;;3.93;62.45;94539.56;2974531;39;20050;-73
2021/04/05 05:45:06;;;;;;;18.38;14.63;;;;;;;4.06;62.33;94549.78;2984680;39;20079;-71
2021/04/05 05:47:12;;;;;;;17.88;14.50;;;;;;;4.23;61.88;94543.25;2974567;39;20059;-73
2021/04/05 05:49:32;;;;;;;20.88;16.15;;;;;;;4.07;62.53;94547.06;2973970;39;20082;-72
2021/04/05 05:51:36;;;;;;;25.38;17.48;;;;;;;3.88;62.48;94545.13;2988350;39;20423;-72
2021/04/05 05:53:43;;;;;;;;;;;;;;;3.91;62.14;94549.25;2992301;39;20155;-73
2021/04/05 05:56:02;;;;;;;19.45;15.13;;;;;;;3.75;61.87;94549.66;2985184;39;19943;-71
2021/04/05 05:58:05;;;;;;;19.05;14.63;;;;;;;3.95;62.52;94553.22;2984435;39;20047;-73
2021/04/05 06:00:08;;;;;;;22.90;14.63;;;;;;;4.15;61.79;94556.84;2974707;39;20051;-72
2021/04/05 06:02:49;;;;;;;19.63;14.48;;;;;;;4.19;61.83;94558.22;2984316;39;20039;-74
2021/04/05 06:05:09;;;;;;;19.80;14.60;;;;;;;4.14;61.33;94557.78;2967563;39;20047;-73
2021/04/05 06:07:20;;;;;;;18.77;15.02;;;;;;;4.20;62.08;94561.66;2980041;39;20051;-73
2021/04/05 06:09:52;;;;;;;20.70;15.38;;;;;;;4.27;62.37;94562.78;2975169;39;20051;-73
2021/04/05 06:12:05;;;;;;;19.35;14.25;;;;;;;4.25;61.79;94564.69;2969224;39;20100;-74
2021/04/05 06:14:16;;;;;;;17.60;14.23;;;;;;;3.84;63.17;94563.63;2979276;40;20083;-87
2021/04/05 06:16:36;;;;;;;18.00;14.60;;;;;;;3.89;62.69;94562.34;2983619;40;20037;-86
2021/04/05 06:18:55;;;;;;;18.95;15.07;;;;;;;3.98;62.78;94571.16;2979631;39;20044;-87
2021/04/05 06:21:06;;;;;;;19.48;14.55;;;;;;;4.07;62.40;94573.00;2971045;40;20048;-84
2021/04/05 06:23:23;;;;;;;20.35;16.00;;;;;;;4.16;62.77;94570.63;2971101;39;20335;-86
2021/04/05 06:25:28;;;;;;;18.05;14.45;;;;;;;4.19;61.86;94578.13;2988223;39;20047;-88
2021/04/05 06:27:59;;;;;;;18.55;14.40;;;;;;;4.25;61.79;94580.25;2979363;40;20068;-88
2021/04/05 06:30:09;;;;;;;18.33;14.45;;;;;;;4.36;61.90;94582.78;2988938;39;20039;-87
2021/04/05 06:32:14;;;;;;;20.33;16.33;;;;;;;4.46;62.11;94577.69;2979918;40;20092;-89
2021/04/05 06:34:18;;;;;;;19.00;15.40;;;;;;;4.46;61.65;94580.28;2987741;39;20060;-87
2021/04/05 06:36:21;;;;;;;18.48;15.43;;;;;;;4.43;61.48;94593.50;2988826;39;20043;-89
2021/04/05 06:38:34;;;;;;;22.50;15.98;;;;;;;4.33;61.77;94596.03;2988755;39;20043;-89
2021/04/05 06:40:36;;;;;;;19.80;15.50;;;;;;;4.37;61.62;94587.03;2987431;39;20039;-86
2021/04/05 06:43:05;;;;;;;18.85;14.98;;;;;;;4.55;61.71;94584.72;2979566;39;20124;-89
2021/04/05 06:45:29;;;;;;;21.65;15.73;;;;;;;4.61;60.96;94584.22;2989095;39;20036;-89
2021/04/05 06:47:43;;;;;;;20.23;15.63;;;;;;;4.81;60.79;94579.16;2979816;39;20064;-84
2021/04/05 06:49:59;;;;;;;17.98;14.52;;;;;;;4.90;60.19;94581.84;2986342;39;20074;-72
2021/04/05 06:52:19;;;;;;;21.75;15.30;;;;;;;5.06;60.24;94590.94;2985105;39;20063;-72
2021/04/05 06:54:51;;;;;;;21.30;15.70;;;;;;;4.98;60.12;94585.56;2974371;39;20048;-73
2021/04/05 06:57:11;;;;;;;18.83;15.27;;;;;;;5.07;59.21;94579.59;2970649;39;20436;-73
2021/04/05 06:59:27;;;;;;;18.35;14.68;;;;;;;5.29;59.64;94584.63;2983713;39;20051;-73
2021/04/05 07:01:40;;;;;;;18.85;14.75;;;;;;;5.51;58.42;94588.81;2980136;39;20166;-74
2021/04/05 07:04:09;;;;;;;19.10;15.50;;;;;;;5.57;57.82;94582.28;2982872;39;20247;-72
2021/04/05 07:06:39;;;;;;;20.30;15.45;;;;;;;5.63;58.12;94586.13;2980913;39;20094;-73
2021/04/05 07:08:51;;;;;;;19.83;16.25;;;;;;;5.67;58.55;94590.91;2978581;39;20086;-74
2021/04/05 07:11:06;;;;;;;17.67;14.55;;;;;;;5.72;58.41;94591.38;2980929;39;20050;-73
2021/04/05 07:13:19;;;;;;;19.65;15.40;;;;;;;5.65;57.95;94592.81;2976492;39;20043;-73
2021/04/05 07:15:45;;;;;;;19.00;15.07;;;;;;;5.78;58.09;94589.19;2983273;39;20051;-73
2021/04/05 07:18:14;;;;;;;19.38;15.02;;;;;;;5.83;58.59;94592.19;2983943;39;20062;-74
2021/04/05 07:20:53;;;;;;;19.90;14.98;;;;;;;5.52;58.92;94600.03;2984117;39;20050;-72
2021/04/05 07:23:05;;;;;;;22.95;17.25;;;;;;;5.39;60.04;94599.44;2984893;39;20047;-73
2021/04/05 07:25:15;;;;;;;23.50;15.93;;;;;;;5.48;60.13;94602.06;2974965;39;20047;-73
2021/04/05 07:27:55;;;;;;;17.70;14.23;;;;;;;5.25;59.92;94616.19;2978466;39;20088;-75
2021/04/05 07:30:17;;;;;;;17.73;13.85;;;;;;;4.93;60.50;94615.31;2969348;39;20042;-74
2021/04/05 07:32:39;;;;;;;19.95;15.75;;;;;;;4.81;61.70;94613.72;2975540;39;20128;-74
2021/04/05 07:34:57;;;;;;;24.70;17.48;;;;;;;4.46;62.27;94614.81;2981324;39;20066;-72
2021/04/05 07:37:44;;;;;;;44.13;23.63;;;;;;;4.05;64.05;94616.38;2960247;40;20048;-71
2021/04/05 07:39:59;;;;;;;21.25;16.08;;;;;;;4.29;63.87;94611.00;2974965;39;20047;-74
2021/04/05 07:42:06;;;;;;;24.23;17.05;;;;;;;4.48;63.25;94610.34;2975265;39;20060;-73
2021/04/05 07:44:19;;;;;;;18.90;14.52;;;;;;;4.67;61.93;94614.88;2975949;39;20545;-74
2021/04/05 07:46:51;;;;;;;19.38;14.80;;;;;;;4.90;61.37;94612.97;2973832;39;20051;-74
2021/04/05 07:49:20;;;;;;;23.58;16.55;;;;;;;5.02;61.19;94618.09;2961462;40;20033;-73
2021/04/05 07:51:31;;;;;;;22.77;17.23;;;;;;;4.80;60.24;94606.09;2967394;40;20425;-71
2021/04/05 07:53:48;;;;;;;20.08;14.43;;;;;;;4.39;61.08;94618.88;2974583;39;20436;-73
2021/04/05 07:55:51;;;;;;;17.23;13.57;;;;;;;4.08;62.36;94621.28;2967130;40;20049;-72
2021/04/05 07:58:14;;;;;;;22.90;16.08;;;;;;;4.19;64.20;94622.22;2967293;40;20294;-74
2021/04/05 08:00:19;;;;;;;19.90;14.07;;;;;;;4.22;63.79;94629.78;2966929;40;20052;-71
2021/04/05 08:02:29;;;;;;;20.42;15.05;;;;;;;3.89;64.12;94631.47;2975563;39;20399;-72
2021/04/05 08:05:01;;;;;;;21.02;14.63;;;;;;;3.89;64.84;94634.06;2966372;40;20043;-73
2021/04/05 08:07:07;;;;;;;22.08;14.10;;;;;;;4.01;63.93;94635.69;2967428;40;20044;-73
2021/04/05 08:09:09;;;;;;;16.75;12.57;;;;;;;3.61;63.70;94625.84;2975054;39;20660;-73
2021/04/05 08:11:48;;;;;;;17.52;13.18;;;;;;;3.59;64.26;94635.53;2965544;40;20742;-73
2021/04/05 08:14:11;;;;;;;22.08;15.40;;;;;;;3.84;64.68;94625.84;2967776;40;20051;-74
2021/04/05 08:16:21;;;;;;;19.17;12.77;;;;;;;3.93;63.37;94630.28;2967005;40;20149;-73
2021/04/05 08:18:29;;;;;;;19.25;14.25;;;;;;;3.98;63.70;94632.50;2968405;40;20056;-88
2021/04/05 08:20:36;;;;;;;21.58;14.98;;;;;;;4.26;63.45;94621.63;2963667;40;20072;-87
2021/04/05 08:22:58;;;;;;;17.48;13.35;;;;;;;4.59;62.38;94626.81;2972743;40;20040;-89
2021/04/05 08:25:13;;;;;;;26.25;16.45;;;;;;;4.88;60.97;94622.66;2965478;40;20052;-86
2021/04/05 08:27:41;;;;;;;18.60;13.60;;;;;;;5.22;59.84;94619.84;2967459;40;20038;-90
2021/04/05 08:29:45;;;;;;;15.95;12.20;;;;;;;5.32;59.24;94618.13;2967372;40;20029;-87
2021/04/05 08:31:59;;;;;;;17.05;12.90;;;;;;;5.57;58.73;94626.47;2976182;40;20048;-87
2021/04/05 08:34:42;;;;;;;15.13;11.30;;;;;;;5.84;57.79;94620.66;2966231;40;20365;-87
2021/04/05 08:36:50;;;;;;;16.70;12.63;;;;;;;6.03;56.60;94619.13;2948289;40;20061;-72
2021/04/05 08:39:07;;;;;;;14.23;11.30;;;;;;;5.91;56.86;94621.78;2948252;40;20052;-72
2021/04/05 08:41:26;;;;;;;15.98;10.77;;;;;;;6.36;55.36;94616.16;2940644;39;20040;-72
2021/04/05 08:43:30;;;;;;;17.20;11.30;;;;;;;6.61;54.17;94629.59;2984304;39;20451;-73
2021/04/05 08:45:49;;;;;;;16.48;11.60;;;;;;;6.58;55.39;94619.44;2991596;39;20443;-73
2021/04/05 08:48:03;;;;;;;14.52;11.40;;;;;;;7.05;53.93;94609.16;2974943;39;20048;-73
2021/04/05 08:50:11;;;;;;;13.63;10.80;;;;;;;7.26;54.00;94610.75;2988927;39;20070;-74
2021/04/05 08:52:13;;;;;;;12.85;9.48;;;;;;;7.43;53.09;94609.22;2984136;39;20316;-74
2021/04/05 08:54:18;;;;;;;13.05;11.10;;;;;;;7.77;51.91;94605.09;2966334;39;20290;-74
2021/04/05 08:56:20;;;;;;;13.35;10.73;;;;;;;7.90;51.62;94601.34;2983522;39;20110;-74
2021/04/05 08:58:45;;;;;;;12.60;10.80;;;;;;;7.53;52.23;94599.59;2984062;39;20451;-73
2021/04/05 09:00:48;;;;;;;15.63;11.27;;;;;;;7.57;51.43;94604.38;2977985;39;20044;-74
2021/04/05 09:03:01;;;;;;;16.05;11.35;;;;;;;7.65;50.92;94603.63;2974701;39;20088;-72
2021/04/05 09:05:07;;;;;;;11.07;8.98;;;;;;;7.79;50.07;94600.56;2974870;39;20468;-76
2021/04/05 09:07:20;;;;;;;14.98;11.05;;;;;;;7.43;51.57;94609.22;2975338;39;20052;-73
2021/04/05 09:09:21;;;;;;;17.55;12.13;;;;;;;7.05;52.75;94600.50;2983483;39;20055;-73
2021/04/05 09:11:22;;;;;;;13.90;11.02;;;;;;;6.68;53.33;94606.44;2974562;39;20071;-73
2021/04/05 09:13:35;;;;;;;12.57;10.25;;;;;;;6.51;52.81;94606.16;2974814;40;20452;-72
2021/04/05 09:15:46;;;;;;;13.80;9.90;;;;;;;6.39;53.29;94603.81;2975556;39;20051;-73
2021/04/05 09:18:52;;;;;;;15.02;11.55;;;;;;;6.16;55.43;94604.09;2984114;39;20296;-73
2021/04/05 09:21:12;;;;;;;;;;;;;;;6.19;56.21;94601.19;2949627;40;20057;-74
2021/04/05 09:23:37;;;;;;;14.25;10.35;;;;;;;5.91;55.05;94600.16;2949735;40;19936;-73
2021/04/05 09:26:23;;;;;;;12.32;9.05;;;;;;;6.26;53.59;94593.69;2962205;40;20059;-74
2021/04/05 09:28:45;;;;;;;;;;;;;;;6.63;51.12;94585.22;2973349;39;20325;-72
2021/04/05 09:31:00;;;;;;;13.35;9.43;;;;;;;6.75;52.34;94586.69;2984370;39;19961;-73
2021/04/05 09:33:23;;;;;;;14.30;9.88;;;;;;;6.81;51.97;94583.56;2980909;39;20399;-74
2021/04/05 09:35:38;;;;;;;12.98;9.65;;;;;;;7.13;51.54;94579.81;2983790;39;20047;-73
2021/04/05 09:38:04;;;;;;;11.63;9.48;;;;;;;7.39;51.05;94582.59;2989219;39;20443;-73
2021/04/05 09:40:15;;;;;;;13.50;10.82;;;;;;;6.95;51.67;94596.16;2965862;40;20108;-73
2021/04/05 09:42:32;;;;;;;14.65;11.82;;;;;;;6.67;53.56;94587.41;2974757;39;20087;-72
2021/04/05 09:45:06;;;;;;;17.67;13.02;;;;;;;6.78;53.33;94583.84;2971177;39;20063;-72
2021/04/05 09:47:21;;;;;;;19.20;13.30;;;;;;;6.47;54.69;94589.16;2988446;39;20087;-74
2021/04/05 09:49:50;;;;;;;14.80;11.60;;;;;;;6.80;54.74;94581.06;2974407;39;20080;-73
2021/04/05 09:52:16;;;;;;;13.40;9.98;;;;;;;6.99;53.19;94570.66;2984366;39;20047;-74
2021/04/05 09:54:53;;;;;;;13.07;10.30;;;;;;;7.38;53.43;94571.38;2973815;39;20044;-75
2021/04/05 09:56:57;;;;;;;15.88;11.55;;;;;;;6.97;52.37;94568.19;2982345;39;20066;-72
2021/04/05 09:59:10;;;;;;;15.00;11.50;;;;;;;6.70;53.44;94566.28;2969014;40;20073;-73
2021/04/05 10:01:16;;;;;;;13.20;10.90;;;;;;;6.88;53.85;94558.63;2977064;39;20056;-73